PWSweather.com
Personal Weather Stations
Station Observations
ILOMBARD30
LodiIT 26900

LodiIT 26900

Lat: 45.2993, Lon: 9.5207

Elevation: 255

Station Type: Davis Vantege Pro2 Plus 24h

http://www.meteo-iw2gob.it

High Low Average
Temperature 60.7°F15.9°C 39.1°F3.9°C 50.1°F10.1°C
Dew Point 29.1°F-1.6°C 12.8°F-10.7°C 20.8°F-6.2°C
Winds 13.8 mph 22.2 kmh Calm Calm 5.0 mph WNW8.0 kmh WNW
Wind Gusts 20.7 mph33.3 kmh -- 7.0 mph11.3 kmh
Humidity 53% 16% 33%
Pressure 30.26 in1024.7 mb 30.05 in1017.6 mb -
Precipitation 0.00 in0.0 mm - -
Hour Temp Dew Point Humidity Winds Wind Gusts Pressure Precip Precip Rate Daily Precip Total
12:00 AM 46.0°F7.8°C 22.4°F-5.3°C 39% 6.9 mph NW11.1 kmh NW 10.4 mph16.7 kmh 30.20 in1022.7 mb - 0.00 in0.0 mm 0.00 in0.0 mm
12:05 AM 45.9°F7.7°C 22.3°F-5.4°C 39% 8.1 mph NW13.0 kmh NW 12.7 mph20.4 kmh 30.20 in1022.7 mb - 0.00 in0.0 mm 0.00 in0.0 mm
12:10 AM 45.9°F7.7°C 22.3°F-5.4°C 39% 5.8 mph NW9.3 kmh NW 6.9 mph11.1 kmh 30.20 in1022.7 mb - 0.00 in0.0 mm 0.00 in0.0 mm
12:15 AM 45.9°F7.7°C 22.3°F-5.4°C 39% 9.2 mph NW14.8 kmh NW 11.5 mph18.5 kmh 30.20 in1022.7 mb - 0.00 in0.0 mm 0.00 in0.0 mm
12:20 AM 45.9°F7.7°C 22.3°F-5.4°C 39% 6.9 mph NW11.1 kmh NW 9.2 mph14.8 kmh 30.20 in1022.7 mb - 0.00 in0.0 mm 0.00 in0.0 mm
12:25 AM 45.7°F7.6°C 22.1°F-5.5°C 39% 6.9 mph NW11.1 kmh NW 11.5 mph18.5 kmh 30.20 in1022.7 mb - 0.00 in0.0 mm 0.00 in0.0 mm
12:30 AM 45.5°F7.5°C 21.9°F-5.6°C 39% 8.1 mph NW13.0 kmh NW 11.5 mph18.5 kmh 30.21 in1023.0 mb - 0.00 in0.0 mm 0.00 in0.0 mm
12:35 AM 45.5°F7.5°C 21.9°F-5.6°C 39% 11.5 mph NW18.5 kmh NW 13.8 mph22.2 kmh 30.20 in1022.7 mb - 0.00 in0.0 mm 0.00 in0.0 mm
12:40 AM 45.7°F7.6°C 21.5°F-5.8°C 38% 9.2 mph NW14.8 kmh NW 12.7 mph20.4 kmh 30.20 in1022.7 mb - 0.00 in0.0 mm 0.00 in0.0 mm
12:45 AM 45.8°F7.7°C 21.6°F-5.8°C 38% 9.2 mph NW14.8 kmh NW 11.5 mph18.5 kmh 30.20 in1022.7 mb - 0.00 in0.0 mm 0.00 in0.0 mm
12:50 AM 46.0°F7.8°C 21.1°F-6.1°C 37% 9.2 mph NW14.8 kmh NW 11.5 mph18.5 kmh 30.21 in1023.0 mb - 0.00 in0.0 mm 0.00 in0.0 mm
12:55 AM 46.2°F7.9°C 21.3°F-5.9°C 37% 6.9 mph NW11.1 kmh NW 11.5 mph18.5 kmh 30.21 in1023.0 mb - 0.00 in0.0 mm 0.00 in0.0 mm
01:00 AM 46.1°F7.8°C 21.9°F-5.6°C 38% 9.2 mph WNW14.8 kmh WNW 11.5 mph18.5 kmh 30.21 in1023.0 mb - 0.00 in0.0 mm 0.00 in0.0 mm
01:05 AM 45.9°F7.7°C 21.7°F-5.7°C 38% 8.1 mph NW13.0 kmh NW 11.5 mph18.5 kmh 30.21 in1023.0 mb - 0.00 in0.0 mm 0.00 in0.0 mm
01:10 AM 45.7°F7.6°C 21.5°F-5.8°C 38% 6.9 mph NW11.1 kmh NW 12.7 mph20.4 kmh 30.21 in1023.0 mb - 0.00 in0.0 mm 0.00 in0.0 mm
01:15 AM 45.6°F7.6°C 21.4°F-5.9°C 38% 8.1 mph WNW13.0 kmh WNW 11.5 mph18.5 kmh 30.21 in1023.0 mb - 0.00 in0.0 mm 0.00 in0.0 mm
01:20 AM 45.7°F7.6°C 21.5°F-5.8°C 38% 8.1 mph WNW13.0 kmh WNW 11.5 mph18.5 kmh 30.21 in1023.0 mb - 0.00 in0.0 mm 0.00 in0.0 mm
01:25 AM 45.8°F7.7°C 21.6°F-5.8°C 38% 9.2 mph NW14.8 kmh NW 13.8 mph22.2 kmh 30.21 in1023.0 mb - 0.00 in0.0 mm 0.00 in0.0 mm
01:30 AM 45.8°F7.7°C 21.6°F-5.8°C 38% 8.1 mph WNW13.0 kmh WNW 13.8 mph22.2 kmh 30.21 in1023.0 mb - 0.00 in0.0 mm 0.00 in0.0 mm
01:35 AM 45.9°F7.7°C 21.1°F-6.1°C 37% 6.9 mph WNW11.1 kmh WNW 11.5 mph18.5 kmh 30.21 in1023.0 mb - 0.00 in0.0 mm 0.00 in0.0 mm
01:40 AM 45.9°F7.7°C 21.1°F-6.1°C 37% 5.8 mph W9.3 kmh W 10.4 mph16.7 kmh 30.22 in1023.4 mb - 0.00 in0.0 mm 0.00 in0.0 mm
01:45 AM 45.8°F7.7°C 21.0°F-6.1°C 37% 6.9 mph WNW11.1 kmh WNW 11.5 mph18.5 kmh 30.22 in1023.4 mb - 0.00 in0.0 mm 0.00 in0.0 mm
01:50 AM 45.8°F7.7°C 21.0°F-6.1°C 37% 5.8 mph WNW9.3 kmh WNW 9.2 mph14.8 kmh 30.22 in1023.4 mb - 0.00 in0.0 mm 0.00 in0.0 mm
01:55 AM 45.8°F7.7°C 21.0°F-6.1°C 37% 9.2 mph WNW14.8 kmh WNW 11.5 mph18.5 kmh 30.22 in1023.4 mb - 0.00 in0.0 mm 0.00 in0.0 mm
02:00 AM 45.9°F7.7°C 20.4°F-6.4°C 36% 6.9 mph WNW11.1 kmh WNW 9.2 mph14.8 kmh 30.22 in1023.4 mb - 0.00 in0.0 mm 0.00 in0.0 mm
02:05 AM 46.1°F7.8°C 19.9°F-6.7°C 35% 6.9 mph WNW11.1 kmh WNW 8.1 mph13.0 kmh 30.22 in1023.4 mb - 0.00 in0.0 mm 0.00 in0.0 mm
02:10 AM 46.2°F7.9°C 20.0°F-6.7°C 35% 5.8 mph NW9.3 kmh NW 10.4 mph16.7 kmh 30.22 in1023.4 mb - 0.00 in0.0 mm 0.00 in0.0 mm
02:15 AM 46.1°F7.8°C 19.9°F-6.7°C 35% 3.5 mph NW5.6 kmh NW 4.6 mph7.4 kmh 30.22 in1023.4 mb - 0.00 in0.0 mm 0.00 in0.0 mm
02:20 AM 46.1°F7.8°C 19.9°F-6.7°C 35% 4.6 mph WNW7.4 kmh WNW 6.9 mph11.1 kmh 30.22 in1023.4 mb - 0.00 in0.0 mm 0.00 in0.0 mm
02:25 AM 46.0°F7.8°C 19.8°F-6.8°C 35% 3.5 mph W5.6 kmh W 6.9 mph11.1 kmh 30.22 in1023.4 mb - 0.00 in0.0 mm 0.00 in0.0 mm
02:30 AM 45.8°F7.7°C 20.3°F-6.5°C 36% 5.8 mph W9.3 kmh W 6.9 mph11.1 kmh 30.22 in1023.4 mb - 0.00 in0.0 mm 0.00 in0.0 mm
02:35 AM 45.5°F7.5°C 20.7°F-6.3°C 37% 5.8 mph W9.3 kmh W 9.2 mph14.8 kmh 30.22 in1023.4 mb - 0.00 in0.0 mm 0.00 in0.0 mm
02:40 AM 45.1°F7.3°C 19.7°F-6.8°C 36% 4.6 mph NW7.4 kmh NW 5.8 mph9.3 kmh 30.22 in1023.4 mb - 0.00 in0.0 mm 0.00 in0.0 mm
02:45 AM 45.0°F7.2°C 19.6°F-6.9°C 36% 4.6 mph NW7.4 kmh NW 5.8 mph9.3 kmh 30.22 in1023.4 mb - 0.00 in0.0 mm 0.00 in0.0 mm
02:50 AM 44.9°F7.2°C 19.5°F-6.9°C 36% 4.6 mph NW7.4 kmh NW 4.6 mph7.4 kmh 30.22 in1023.4 mb - 0.00 in0.0 mm 0.00 in0.0 mm
02:55 AM 44.9°F7.2°C 19.5°F-6.9°C 36% 5.8 mph NW9.3 kmh NW 11.5 mph18.5 kmh 30.22 in1023.4 mb - 0.00 in0.0 mm 0.00 in0.0 mm
03:00 AM 45.0°F7.2°C 19.0°F-7.2°C 35% 10.4 mph NW16.7 kmh NW 20.7 mph33.3 kmh 30.22 in1023.4 mb - 0.00 in0.0 mm 0.00 in0.0 mm
03:05 AM 45.6°F7.6°C 19.5°F-6.9°C 35% 10.4 mph NNW16.7 kmh NNW 13.8 mph22.2 kmh 30.23 in1023.7 mb - 0.00 in0.0 mm 0.00 in0.0 mm
03:10 AM 46.0°F7.8°C 19.8°F-6.8°C 35% 9.2 mph NNW14.8 kmh NNW 12.7 mph20.4 kmh 30.22 in1023.4 mb - 0.00 in0.0 mm 0.00 in0.0 mm
03:15 AM 46.0°F7.8°C 20.5°F-6.4°C 36% 9.2 mph NNW14.8 kmh NNW 12.7 mph20.4 kmh 30.23 in1023.7 mb - 0.00 in0.0 mm 0.00 in0.0 mm
03:20 AM 45.8°F7.7°C 20.3°F-6.5°C 36% 5.8 mph NNW9.3 kmh NNW 11.5 mph18.5 kmh 30.22 in1023.4 mb - 0.00 in0.0 mm 0.00 in0.0 mm
03:25 AM 45.7°F7.6°C 20.2°F-6.6°C 36% 11.5 mph NW18.5 kmh NW 12.7 mph20.4 kmh 30.22 in1023.4 mb - 0.00 in0.0 mm 0.00 in0.0 mm
03:30 AM 45.7°F7.6°C 20.2°F-6.6°C 36% 8.1 mph NW13.0 kmh NW 10.4 mph16.7 kmh 30.22 in1023.4 mb - 0.00 in0.0 mm 0.00 in0.0 mm
03:35 AM 45.5°F7.5°C 20.1°F-6.6°C 36% 5.8 mph NW9.3 kmh NW 10.4 mph16.7 kmh 30.22 in1023.4 mb - 0.00 in0.0 mm 0.00 in0.0 mm
03:40 AM 45.3°F7.4°C 20.6°F-6.3°C 37% 6.9 mph NW11.1 kmh NW 8.1 mph13.0 kmh 30.22 in1023.4 mb - 0.00 in0.0 mm 0.00 in0.0 mm
03:45 AM 45.2°F7.3°C 20.4°F-6.4°C 37% 4.6 mph NW7.4 kmh NW 8.1 mph13.0 kmh 30.22 in1023.4 mb - 0.00 in0.0 mm 0.00 in0.0 mm
03:50 AM 45.0°F7.2°C 20.9°F-6.2°C 38% 9.2 mph NW14.8 kmh NW 12.7 mph20.4 kmh 30.22 in1023.4 mb - 0.00 in0.0 mm 0.00 in0.0 mm
03:55 AM 44.8°F7.1°C 20.7°F-6.3°C 38% 9.2 mph NW14.8 kmh NW 11.5 mph18.5 kmh 30.23 in1023.7 mb - 0.00 in0.0 mm 0.00 in0.0 mm
04:00 AM 44.7°F7.1°C 20.6°F-6.3°C 38% 12.7 mph NW20.4 kmh NW 16.1 mph25.9 kmh 30.22 in1023.4 mb - 0.00 in0.0 mm 0.00 in0.0 mm
04:05 AM 44.7°F7.1°C 20.6°F-6.3°C 38% 13.8 mph NW22.2 kmh NW 20.7 mph33.3 kmh 30.22 in1023.4 mb - 0.00 in0.0 mm 0.00 in0.0 mm
04:10 AM 44.7°F7.1°C 20.6°F-6.3°C 38% 12.7 mph NW20.4 kmh NW 18.4 mph29.6 kmh 30.22 in1023.4 mb - 0.00 in0.0 mm 0.00 in0.0 mm
04:15 AM 44.7°F7.1°C 20.6°F-6.3°C 38% 10.4 mph NW16.7 kmh NW 12.7 mph20.4 kmh 30.22 in1023.4 mb - 0.00 in0.0 mm 0.00 in0.0 mm
04:20 AM 44.7°F7.1°C 20.6°F-6.3°C 38% 10.4 mph NW16.7 kmh NW 12.7 mph20.4 kmh 30.22 in1023.4 mb - 0.00 in0.0 mm 0.00 in0.0 mm
04:25 AM 44.7°F7.1°C 20.6°F-6.3°C 38% 11.5 mph NW18.5 kmh NW 13.8 mph22.2 kmh 30.22 in1023.4 mb - 0.00 in0.0 mm 0.00 in0.0 mm
04:30 AM 44.7°F7.1°C 20.6°F-6.3°C 38% 9.2 mph NW14.8 kmh NW 12.7 mph20.4 kmh 30.22 in1023.4 mb - 0.00 in0.0 mm 0.00 in0.0 mm
04:35 AM 44.5°F6.9°C 21.0°F-6.1°C 39% 8.1 mph NW13.0 kmh NW 13.8 mph22.2 kmh 30.22 in1023.4 mb - 0.00 in0.0 mm 0.00 in0.0 mm
04:40 AM 44.3°F6.8°C 20.9°F-6.2°C 39% 5.8 mph NW9.3 kmh NW 10.4 mph16.7 kmh 30.22 in1023.4 mb - 0.00 in0.0 mm 0.00 in0.0 mm
04:45 AM 44.0°F6.7°C 21.2°F-6.0°C 40% 8.1 mph NW13.0 kmh NW 11.5 mph18.5 kmh 30.22 in1023.4 mb - 0.00 in0.0 mm 0.00 in0.0 mm
04:50 AM 43.8°F6.6°C 21.0°F-6.1°C 40% 8.1 mph NW13.0 kmh NW 10.4 mph16.7 kmh 30.22 in1023.4 mb - 0.00 in0.0 mm 0.00 in0.0 mm
04:55 AM 43.7°F6.5°C 20.9°F-6.2°C 40% 8.1 mph NW13.0 kmh NW 10.4 mph16.7 kmh 30.22 in1023.4 mb - 0.00 in0.0 mm 0.00 in0.0 mm
05:00 AM 43.7°F6.5°C 20.9°F-6.2°C 40% 6.9 mph NNW11.1 kmh NNW 10.4 mph16.7 kmh 30.22 in1023.4 mb - 0.00 in0.0 mm 0.00 in0.0 mm
05:05 AM 43.8°F6.6°C 20.4°F-6.4°C 39% 9.2 mph NW14.8 kmh NW 10.4 mph16.7 kmh 30.22 in1023.4 mb - 0.00 in0.0 mm 0.00 in0.0 mm
05:10 AM 43.8°F6.6°C 20.4°F-6.4°C 39% 8.1 mph NW13.0 kmh NW 10.4 mph16.7 kmh 30.22 in1023.4 mb - 0.00 in0.0 mm 0.00 in0.0 mm
05:15 AM 43.8°F6.6°C 20.4°F-6.4°C 39% 6.9 mph NW11.1 kmh NW 11.5 mph18.5 kmh 30.22 in1023.4 mb - 0.00 in0.0 mm 0.00 in0.0 mm
05:20 AM 43.9°F6.6°C 20.5°F-6.4°C 39% 9.2 mph NW14.8 kmh NW 11.5 mph18.5 kmh 30.21 in1023.0 mb - 0.00 in0.0 mm 0.00 in0.0 mm
05:25 AM 44.1°F6.7°C 20.1°F-6.6°C 38% 10.4 mph NW16.7 kmh NW 13.8 mph22.2 kmh 30.22 in1023.4 mb - 0.00 in0.0 mm 0.00 in0.0 mm
05:30 AM 44.4°F6.9°C 20.3°F-6.5°C 38% 9.2 mph NW14.8 kmh NW 13.8 mph22.2 kmh 30.22 in1023.4 mb - 0.00 in0.0 mm 0.00 in0.0 mm
05:35 AM 44.5°F6.9°C 20.5°F-6.4°C 38% 10.4 mph NW16.7 kmh NW 16.1 mph25.9 kmh 30.22 in1023.4 mb - 0.00 in0.0 mm 0.00 in0.0 mm
05:40 AM 44.5°F6.9°C 20.5°F-6.4°C 38% 8.1 mph NW13.0 kmh NW 12.7 mph20.4 kmh 30.22 in1023.4 mb - 0.00 in0.0 mm 0.00 in0.0 mm
05:45 AM 44.5°F6.9°C 20.4°F-6.4°C 38% 8.1 mph NW13.0 kmh NW 9.2 mph14.8 kmh 30.22 in1023.4 mb - 0.00 in0.0 mm 0.00 in0.0 mm
05:50 AM 44.4°F6.9°C 20.3°F-6.5°C 38% 8.1 mph NW13.0 kmh NW 10.4 mph16.7 kmh 30.22 in1023.4 mb - 0.00 in0.0 mm 0.00 in0.0 mm
05:55 AM 44.3°F6.8°C 20.3°F-6.5°C 38% 8.1 mph NW13.0 kmh NW 11.5 mph18.5 kmh 30.22 in1023.4 mb - 0.00 in0.0 mm 0.00 in0.0 mm
06:00 AM 44.3°F6.8°C 20.3°F-6.5°C 38% 9.2 mph NW14.8 kmh NW 11.5 mph18.5 kmh 30.21 in1023.0 mb - 0.00 in0.0 mm 0.00 in0.0 mm
06:05 AM 44.3°F6.8°C 19.6°F-6.9°C 37% 8.1 mph NW13.0 kmh NW 13.8 mph22.2 kmh 30.21 in1023.0 mb - 0.00 in0.0 mm 0.00 in0.0 mm
06:10 AM 44.3°F6.8°C 19.6°F-6.9°C 37% 10.4 mph NW16.7 kmh NW 15.0 mph24.1 kmh 30.21 in1023.0 mb - 0.00 in0.0 mm 0.00 in0.0 mm
06:15 AM 44.5°F6.9°C 19.2°F-7.1°C 36% 9.2 mph NW14.8 kmh NW 12.7 mph20.4 kmh 30.21 in1023.0 mb - 0.00 in0.0 mm 0.00 in0.0 mm
06:20 AM 44.7°F7.1°C 19.3°F-7.1°C 36% 8.1 mph NW13.0 kmh NW 11.5 mph18.5 kmh 30.21 in1023.0 mb - 0.00 in0.0 mm 0.00 in0.0 mm
06:25 AM 44.8°F7.1°C 19.4°F-7.0°C 36% 9.2 mph NW14.8 kmh NW 11.5 mph18.5 kmh 30.20 in1022.7 mb - 0.00 in0.0 mm 0.00 in0.0 mm
06:30 AM 44.9°F7.2°C 19.5°F-6.9°C 36% 8.1 mph NW13.0 kmh NW 10.4 mph16.7 kmh 30.21 in1023.0 mb - 0.00 in0.0 mm 0.00 in0.0 mm
06:35 AM 44.6°F7.0°C 19.9°F-6.7°C 37% 8.1 mph WNW13.0 kmh WNW 11.5 mph18.5 kmh 30.21 in1023.0 mb - 0.00 in0.0 mm 0.00 in0.0 mm
06:40 AM 44.0°F6.7°C 20.0°F-6.7°C 38% 4.6 mph WNW7.4 kmh WNW 5.8 mph9.3 kmh 30.21 in1023.0 mb - 0.00 in0.0 mm 0.00 in0.0 mm
06:45 AM 43.5°F6.4°C 20.2°F-6.6°C 39% 6.9 mph SE11.1 kmh SE 9.2 mph14.8 kmh 30.23 in1023.7 mb - 0.00 in0.0 mm 0.00 in0.0 mm
06:50 AM 41.9°F5.5°C 21.0°F-6.1°C 43% 8.1 mph S13.0 kmh S 10.4 mph16.7 kmh 30.23 in1023.7 mb - 0.00 in0.0 mm 0.00 in0.0 mm
06:55 AM 41.1°F5.1°C 20.8°F-6.2°C 44% 3.5 mph SW5.6 kmh SW 4.6 mph7.4 kmh 30.23 in1023.7 mb - 0.00 in0.0 mm 0.00 in0.0 mm
07:00 AM 40.9°F4.9°C 20.6°F-6.3°C 44% 4.6 mph WSW7.4 kmh WSW 4.6 mph7.4 kmh 30.23 in1023.7 mb - 0.00 in0.0 mm 0.00 in0.0 mm
07:05 AM 41.0°F5.0°C 20.7°F-6.3°C 44% 1.2 mph WSW1.9 kmh WSW 2.3 mph3.7 kmh 30.23 in1023.7 mb - 0.00 in0.0 mm 0.00 in0.0 mm
07:10 AM 41.3°F5.2°C 21.0°F-6.1°C 44% 2.3 mph S3.7 kmh S 3.5 mph5.6 kmh 30.24 in1024.0 mb - 0.00 in0.0 mm 0.00 in0.0 mm
07:15 AM 41.4°F5.2°C 21.6°F-5.8°C 45% 4.6 mph SE7.4 kmh SE 9.2 mph14.8 kmh 30.24 in1024.0 mb - 0.00 in0.0 mm 0.00 in0.0 mm
07:20 AM 40.9°F4.9°C 22.7°F-5.2°C 48% 5.8 mph S9.3 kmh S 6.9 mph11.1 kmh 30.24 in1024.0 mb - 0.00 in0.0 mm 0.00 in0.0 mm
07:25 AM 40.1°F4.5°C 22.0°F-5.6°C 48% 4.6 mph SSW7.4 kmh SSW 6.9 mph11.1 kmh 30.24 in1024.0 mb - 0.00 in0.0 mm 0.00 in0.0 mm
07:30 AM 39.6°F4.2°C 22.4°F-5.3°C 50% 6.9 mph SSW11.1 kmh SSW 9.2 mph14.8 kmh 30.25 in1024.4 mb - 0.00 in0.0 mm 0.00 in0.0 mm
07:35 AM 39.2°F4.0°C 22.6°F-5.2°C 51% 4.6 mph SW7.4 kmh SW 5.8 mph9.3 kmh 30.25 in1024.4 mb - 0.00 in0.0 mm 0.00 in0.0 mm
07:40 AM 39.1°F3.9°C 22.9°F-5.1°C 52% 5.8 mph SSW9.3 kmh SSW 9.2 mph14.8 kmh 30.24 in1024.0 mb - 0.00 in0.0 mm 0.00 in0.0 mm
07:45 AM 39.3°F4.1°C 23.6°F-4.7°C 53% 4.6 mph S7.4 kmh S 6.9 mph11.1 kmh 30.25 in1024.4 mb - 0.00 in0.0 mm 0.00 in0.0 mm
07:50 AM 39.5°F4.2°C 23.7°F-4.6°C 53% 4.6 mph SW7.4 kmh SW 4.6 mph7.4 kmh 30.25 in1024.4 mb - 0.00 in0.0 mm 0.00 in0.0 mm
07:55 AM 39.7°F4.3°C 24.0°F-4.4°C 53% 4.6 mph SW7.4 kmh SW 6.9 mph11.1 kmh 30.25 in1024.4 mb - 0.00 in0.0 mm 0.00 in0.0 mm
08:00 AM 39.9°F4.4°C 23.7°F-4.6°C 52% 4.6 mph SW7.4 kmh SW 4.6 mph7.4 kmh 30.25 in1024.4 mb - 0.00 in0.0 mm 0.00 in0.0 mm
08:05 AM 40.3°F4.6°C 24.0°F-4.4°C 52% 3.5 mph SW5.6 kmh SW 4.6 mph7.4 kmh 30.25 in1024.4 mb - 0.00 in0.0 mm 0.00 in0.0 mm
08:10 AM 40.8°F4.9°C 24.5°F-4.2°C 52% 4.6 mph SSW7.4 kmh SSW 6.9 mph11.1 kmh 30.25 in1024.4 mb - 0.00 in0.0 mm 0.00 in0.0 mm
08:15 AM 41.3°F5.2°C 24.5°F-4.2°C 51% 2.3 mph SSW3.7 kmh SSW 3.5 mph5.6 kmh 30.25 in1024.4 mb - 0.00 in0.0 mm 0.00 in0.0 mm
08:20 AM 41.8°F5.4°C 25.0°F-3.9°C 51% 3.5 mph WSW5.6 kmh WSW 8.1 mph13.0 kmh 30.25 in1024.4 mb - 0.00 in0.0 mm 0.00 in0.0 mm
08:25 AM 42.2°F5.7°C 24.9°F-3.9°C 50% 8.1 mph SW13.0 kmh SW 11.5 mph18.5 kmh 30.25 in1024.4 mb - 0.00 in0.0 mm 0.00 in0.0 mm
08:30 AM 42.3°F5.7°C 25.0°F-3.9°C 50% 5.8 mph SW9.3 kmh SW 8.1 mph13.0 kmh 30.25 in1024.4 mb - 0.00 in0.0 mm 0.00 in0.0 mm
08:35 AM 42.4°F5.8°C 25.1°F-3.8°C 50% 3.5 mph WSW5.6 kmh WSW 5.8 mph9.3 kmh 30.26 in1024.7 mb - 0.00 in0.0 mm 0.00 in0.0 mm
08:40 AM 42.6°F5.9°C 25.2°F-3.8°C 50% 8.1 mph SW13.0 kmh SW 11.5 mph18.5 kmh 30.26 in1024.7 mb - 0.00 in0.0 mm 0.00 in0.0 mm
08:45 AM 42.7°F5.9°C 25.3°F-3.7°C 50% 6.9 mph SW11.1 kmh SW 10.4 mph16.7 kmh 30.26 in1024.7 mb - 0.00 in0.0 mm 0.00 in0.0 mm
08:50 AM 42.8°F6.0°C 24.9°F-3.9°C 49% 9.2 mph WSW14.8 kmh WSW 11.5 mph18.5 kmh 30.26 in1024.7 mb - 0.00 in0.0 mm 0.00 in0.0 mm
08:55 AM 42.9°F6.1°C 25.5°F-3.6°C 50% 8.1 mph SW13.0 kmh SW 8.1 mph13.0 kmh 30.26 in1024.7 mb - 0.00 in0.0 mm 0.00 in0.0 mm
09:00 AM 43.2°F6.2°C 25.8°F-3.4°C 50% 8.1 mph WSW13.0 kmh WSW 11.5 mph18.5 kmh 30.26 in1024.7 mb - 0.00 in0.0 mm 0.00 in0.0 mm
09:05 AM 43.5°F6.4°C 25.1°F-3.8°C 48% 6.9 mph SW11.1 kmh SW 10.4 mph16.7 kmh 30.26 in1024.7 mb - 0.00 in0.0 mm 0.00 in0.0 mm
09:10 AM 43.8°F6.6°C 25.4°F-3.7°C 48% 8.1 mph WSW13.0 kmh WSW 11.5 mph18.5 kmh 30.26 in1024.7 mb - 0.00 in0.0 mm 0.00 in0.0 mm
09:15 AM 44.1°F6.7°C 25.6°F-3.6°C 48% 5.8 mph WSW9.3 kmh WSW 9.2 mph14.8 kmh 30.26 in1024.7 mb - 0.00 in0.0 mm 0.00 in0.0 mm
09:20 AM 44.3°F6.8°C 26.3°F-3.2°C 49% 8.1 mph WSW13.0 kmh WSW 10.4 mph16.7 kmh 30.26 in1024.7 mb - 0.00 in0.0 mm 0.00 in0.0 mm
09:25 AM 44.4°F6.9°C 25.9°F-3.4°C 48% 8.1 mph WSW13.0 kmh WSW 12.7 mph20.4 kmh 30.26 in1024.7 mb - 0.00 in0.0 mm 0.00 in0.0 mm
09:30 AM 44.5°F6.9°C 26.5°F-3.1°C 49% 6.9 mph WSW11.1 kmh WSW 11.5 mph18.5 kmh 30.26 in1024.7 mb - 0.00 in0.0 mm 0.00 in0.0 mm
09:35 AM 44.7°F7.1°C 26.7°F-2.9°C 49% 6.9 mph WSW11.1 kmh WSW 9.2 mph14.8 kmh 30.26 in1024.7 mb - 0.00 in0.0 mm 0.00 in0.0 mm
09:40 AM 44.6°F7.0°C 26.6°F-3.0°C 49% 8.1 mph W13.0 kmh W 10.4 mph16.7 kmh 30.26 in1024.7 mb - 0.00 in0.0 mm 0.00 in0.0 mm
09:45 AM 44.4°F6.9°C 26.9°F-2.8°C 50% 8.1 mph W13.0 kmh W 12.7 mph20.4 kmh 30.26 in1024.7 mb - 0.00 in0.0 mm 0.00 in0.0 mm
09:50 AM 44.5°F6.9°C 27.5°F-2.5°C 51% 5.8 mph W9.3 kmh W 8.1 mph13.0 kmh 30.26 in1024.7 mb - 0.00 in0.0 mm 0.00 in0.0 mm
09:55 AM 44.9°F7.2°C 27.8°F-2.3°C 51% 9.2 mph WSW14.8 kmh WSW 10.4 mph16.7 kmh 30.26 in1024.7 mb - 0.00 in0.0 mm 0.00 in0.0 mm
10:00 AM 45.2°F7.3°C 28.6°F-1.9°C 52% 8.1 mph W13.0 kmh W 16.1 mph25.9 kmh 30.25 in1024.4 mb - 0.00 in0.0 mm 0.00 in0.0 mm
10:05 AM 45.7°F7.6°C 28.1°F-2.2°C 50% 10.4 mph WSW16.7 kmh WSW 11.5 mph18.5 kmh 30.25 in1024.4 mb - 0.00 in0.0 mm 0.00 in0.0 mm
10:10 AM 46.1°F7.8°C 28.5°F-1.9°C 50% 6.9 mph W11.1 kmh W 12.7 mph20.4 kmh 30.25 in1024.4 mb - 0.00 in0.0 mm 0.00 in0.0 mm
10:15 AM 46.5°F8.1°C 28.3°F-2.1°C 49% 9.2 mph WSW14.8 kmh WSW 11.5 mph18.5 kmh 30.25 in1024.4 mb - 0.00 in0.0 mm 0.00 in0.0 mm
10:20 AM 46.6°F8.1°C 28.9°F-1.7°C 50% 6.9 mph WSW11.1 kmh WSW 8.1 mph13.0 kmh 30.25 in1024.4 mb - 0.00 in0.0 mm 0.00 in0.0 mm
10:25 AM 47.0°F8.3°C 28.3°F-2.1°C 48% 9.2 mph W14.8 kmh W 11.5 mph18.5 kmh 30.25 in1024.4 mb - 0.00 in0.0 mm 0.00 in0.0 mm
10:30 AM 47.2°F8.4°C 28.5°F-1.9°C 48% 4.6 mph WSW7.4 kmh WSW 10.4 mph16.7 kmh 30.25 in1024.4 mb - 0.00 in0.0 mm 0.00 in0.0 mm
10:35 AM 47.7°F8.7°C 28.9°F-1.7°C 48% 5.8 mph W9.3 kmh W 8.1 mph13.0 kmh 30.24 in1024.0 mb - 0.00 in0.0 mm 0.00 in0.0 mm
10:40 AM 48.0°F8.9°C 28.7°F-1.8°C 47% 8.1 mph WNW13.0 kmh WNW 13.8 mph22.2 kmh 30.24 in1024.0 mb - 0.00 in0.0 mm 0.00 in0.0 mm
10:45 AM 48.2°F9.0°C 28.9°F-1.7°C 47% 6.9 mph NW11.1 kmh NW 11.5 mph18.5 kmh 30.24 in1024.0 mb - 0.00 in0.0 mm 0.00 in0.0 mm
10:50 AM 48.6°F9.2°C 28.2°F-2.1°C 45% 5.8 mph W9.3 kmh W 11.5 mph18.5 kmh 30.24 in1024.0 mb - 0.00 in0.0 mm 0.00 in0.0 mm
10:55 AM 49.0°F9.4°C 29.1°F-1.6°C 46% 4.6 mph WSW7.4 kmh WSW 6.9 mph11.1 kmh 30.24 in1024.0 mb - 0.00 in0.0 mm 0.00 in0.0 mm
11:00 AM 49.6°F9.8°C 28.0°F-2.2°C 43% 6.9 mph WSW11.1 kmh WSW 5.8 mph9.3 kmh 30.24 in1024.0 mb - 0.00 in0.0 mm 0.00 in0.0 mm
11:05 AM 49.9°F9.9°C 28.8°F-1.8°C 44% 4.6 mph NW7.4 kmh NW 8.1 mph13.0 kmh 30.24 in1024.0 mb - 0.00 in0.0 mm 0.00 in0.0 mm
11:10 AM 50.3°F10.2°C 28.6°F-1.9°C 43% 6.9 mph WSW11.1 kmh WSW 10.4 mph16.7 kmh 30.24 in1024.0 mb - 0.00 in0.0 mm 0.00 in0.0 mm
11:15 AM 50.3°F10.2°C 28.6°F-1.9°C 43% 5.8 mph WNW9.3 kmh WNW 8.1 mph13.0 kmh 30.23 in1023.7 mb - 0.00 in0.0 mm 0.00 in0.0 mm
11:20 AM 50.6°F10.3°C 28.9°F-1.7°C 43% 6.9 mph WNW11.1 kmh WNW 11.5 mph18.5 kmh 30.23 in1023.7 mb - 0.00 in0.0 mm 0.00 in0.0 mm
11:25 AM 50.9°F10.5°C 28.0°F-2.2°C 41% 9.2 mph NW14.8 kmh NW 11.5 mph18.5 kmh 30.23 in1023.7 mb - 0.00 in0.0 mm 0.00 in0.0 mm
11:30 AM 51.2°F10.7°C 28.3°F-2.1°C 41% 8.1 mph W13.0 kmh W 11.5 mph18.5 kmh 30.22 in1023.4 mb - 0.00 in0.0 mm 0.00 in0.0 mm
11:35 AM 51.6°F10.9°C 28.6°F-1.9°C 41% 4.6 mph NW7.4 kmh NW 6.9 mph11.1 kmh 30.22 in1023.4 mb - 0.00 in0.0 mm 0.00 in0.0 mm
11:40 AM 52.1°F11.2°C 28.5°F-1.9°C 40% 6.9 mph NW11.1 kmh NW 10.4 mph16.7 kmh 30.22 in1023.4 mb - 0.00 in0.0 mm 0.00 in0.0 mm
11:45 AM 52.6°F11.4°C 27.7°F-2.4°C 38% 5.8 mph NNW9.3 kmh NNW 10.4 mph16.7 kmh 30.22 in1023.4 mb - 0.00 in0.0 mm 0.00 in0.0 mm
11:50 AM 53.0°F11.7°C 26.1°F-3.3°C 35% 4.6 mph WNW7.4 kmh WNW 6.9 mph11.1 kmh 30.22 in1023.4 mb - 0.00 in0.0 mm 0.00 in0.0 mm
11:55 AM 53.5°F11.9°C 25.1°F-3.8°C 33% 5.8 mph NNW9.3 kmh NNW 8.1 mph13.0 kmh 30.22 in1023.4 mb - 0.00 in0.0 mm 0.00 in0.0 mm
12:00 PM 53.7°F12.1°C 23.7°F-4.6°C 31% 3.5 mph N5.6 kmh N 6.9 mph11.1 kmh 30.22 in1023.4 mb - 0.00 in0.0 mm 0.00 in0.0 mm
12:05 PM 54.4°F12.4°C 24.4°F-4.2°C 31% 3.5 mph NNW5.6 kmh NNW 6.9 mph11.1 kmh 30.22 in1023.4 mb - 0.00 in0.0 mm 0.00 in0.0 mm
12:10 PM 55.1°F12.8°C 24.2°F-4.3°C 30% 4.6 mph NW7.4 kmh NW 6.9 mph11.1 kmh 30.22 in1023.4 mb - 0.00 in0.0 mm 0.00 in0.0 mm
12:15 PM 55.4°F13.0°C 24.4°F-4.2°C 30% 5.8 mph N9.3 kmh N 9.2 mph14.8 kmh 30.22 in1023.4 mb - 0.00 in0.0 mm 0.00 in0.0 mm
12:20 PM 55.7°F13.2°C 24.7°F-4.1°C 30% 5.8 mph W9.3 kmh W 6.9 mph11.1 kmh 30.22 in1023.4 mb - 0.00 in0.0 mm 0.00 in0.0 mm
12:25 PM 55.6°F13.1°C 26.2°F-3.2°C 32% 6.9 mph WSW11.1 kmh WSW 8.1 mph13.0 kmh 30.22 in1023.4 mb - 0.00 in0.0 mm 0.00 in0.0 mm
12:30 PM 55.5°F13.1°C 24.5°F-4.2°C 30% 3.5 mph SW5.6 kmh SW 4.6 mph7.4 kmh 30.21 in1023.0 mb - 0.00 in0.0 mm 0.00 in0.0 mm
12:35 PM 56.1°F13.4°C 25.8°F-3.4°C 31% 4.6 mph NW7.4 kmh NW 5.8 mph9.3 kmh 30.21 in1023.0 mb - 0.00 in0.0 mm 0.00 in0.0 mm
12:40 PM 56.3°F13.5°C 20.9°F-6.2°C 25% 3.5 mph N5.6 kmh N 3.5 mph5.6 kmh 30.21 in1023.0 mb - 0.00 in0.0 mm 0.00 in0.0 mm
12:45 PM 56.8°F13.8°C 24.0°F-4.4°C 28% 3.5 mph W5.6 kmh W 4.6 mph7.4 kmh 30.21 in1023.0 mb - 0.00 in0.0 mm 0.00 in0.0 mm
12:50 PM 57.5°F14.2°C 24.6°F-4.1°C 28% 3.5 mph W5.6 kmh W 5.8 mph9.3 kmh 30.21 in1023.0 mb - 0.00 in0.0 mm 0.00 in0.0 mm
12:55 PM 57.6°F14.2°C 24.7°F-4.1°C 28% 5.8 mph WSW9.3 kmh WSW 6.9 mph11.1 kmh 30.21 in1023.0 mb - 0.00 in0.0 mm 0.00 in0.0 mm
01:00 PM 57.5°F14.2°C 23.7°F-4.6°C 27% 4.6 mph W7.4 kmh W 5.8 mph9.3 kmh 30.21 in1023.0 mb - 0.00 in0.0 mm 0.00 in0.0 mm
01:05 PM 57.4°F14.1°C 23.7°F-4.6°C 27% 3.5 mph NW5.6 kmh NW 4.6 mph7.4 kmh 30.20 in1022.7 mb - 0.00 in0.0 mm 0.00 in0.0 mm
01:10 PM 58.0°F14.4°C 21.4°F-5.9°C 24% 5.8 mph W9.3 kmh W 8.1 mph13.0 kmh 30.20 in1022.7 mb - 0.00 in0.0 mm 0.00 in0.0 mm
01:15 PM 58.1°F14.5°C 21.4°F-5.9°C 24% 3.5 mph WNW5.6 kmh WNW 5.8 mph9.3 kmh 30.19 in1022.4 mb - 0.00 in0.0 mm 0.00 in0.0 mm
01:20 PM 58.2°F14.6°C 18.4°F-7.6°C 21% 6.9 mph NW11.1 kmh NW 9.2 mph14.8 kmh 30.19 in1022.4 mb - 0.00 in0.0 mm 0.00 in0.0 mm
01:25 PM 58.3°F14.6°C 18.5°F-7.5°C 21% 6.9 mph NW11.1 kmh NW 11.5 mph18.5 kmh 30.19 in1022.4 mb - 0.00 in0.0 mm 0.00 in0.0 mm
01:30 PM 58.3°F14.6°C 17.3°F-8.2°C 20% 5.8 mph NW9.3 kmh NW 8.1 mph13.0 kmh 30.19 in1022.4 mb - 0.00 in0.0 mm 0.00 in0.0 mm
01:35 PM 58.3°F14.6°C 16.2°F-8.8°C 19% 5.8 mph N9.3 kmh N 10.4 mph16.7 kmh 30.18 in1022.0 mb - 0.00 in0.0 mm 0.00 in0.0 mm
01:40 PM 58.4°F14.7°C 16.2°F-8.8°C 19% 6.9 mph NW11.1 kmh NW 8.1 mph13.0 kmh 30.18 in1022.0 mb - 0.00 in0.0 mm 0.00 in0.0 mm
01:45 PM 58.3°F14.6°C 14.9°F-9.5°C 18% 1.2 mph NW1.9 kmh NW 2.3 mph3.7 kmh 30.18 in1022.0 mb - 0.00 in0.0 mm 0.00 in0.0 mm
01:50 PM 59.0°F15.0°C 15.4°F-9.2°C 18% 6.9 mph W11.1 kmh W 11.5 mph18.5 kmh 30.18 in1022.0 mb - 0.00 in0.0 mm 0.00 in0.0 mm
01:55 PM 59.0°F15.0°C 15.5°F-9.2°C 18% 4.6 mph WSW7.4 kmh WSW 8.1 mph13.0 kmh 30.17 in1021.7 mb - 0.00 in0.0 mm 0.00 in0.0 mm
02:00 PM 59.1°F15.1°C 14.3°F-9.8°C 17% 6.9 mph WSW11.1 kmh WSW 8.1 mph13.0 kmh 30.17 in1021.7 mb - 0.00 in0.0 mm 0.00 in0.0 mm
02:05 PM 59.1°F15.1°C 15.6°F-9.1°C 18% 4.6 mph NW7.4 kmh NW 6.9 mph11.1 kmh 30.16 in1021.3 mb - 0.00 in0.0 mm 0.00 in0.0 mm
02:10 PM 59.7°F15.4°C 16.0°F-8.9°C 18% 2.3 mph W3.7 kmh W 3.5 mph5.6 kmh 30.16 in1021.3 mb - 0.00 in0.0 mm 0.00 in0.0 mm
02:15 PM 60.3°F15.7°C 16.5°F-8.6°C 18% 3.5 mph NW5.6 kmh NW 3.5 mph5.6 kmh 30.16 in1021.3 mb - 0.00 in0.0 mm 0.00 in0.0 mm
02:20 PM 60.3°F15.7°C 13.8°F-10.1°C 16% 8.1 mph NW13.0 kmh NW 11.5 mph18.5 kmh 30.16 in1021.3 mb - 0.00 in0.0 mm 0.00 in0.0 mm
02:25 PM 59.7°F15.4°C 13.4°F-10.3°C 16% 2.3 mph NW3.7 kmh NW 5.8 mph9.3 kmh 30.16 in1021.3 mb - 0.00 in0.0 mm 0.00 in0.0 mm
02:30 PM 59.6°F15.3°C 14.7°F-9.6°C 17% 3.5 mph WNW5.6 kmh WNW 3.5 mph5.6 kmh 30.16 in1021.3 mb - 0.00 in0.0 mm 0.00 in0.0 mm
02:35 PM 59.8°F15.4°C 13.4°F-10.3°C 16% 6.9 mph NNW11.1 kmh NNW 10.4 mph16.7 kmh 30.16 in1021.3 mb - 0.00 in0.0 mm 0.00 in0.0 mm
02:40 PM 59.7°F15.4°C 14.8°F-9.6°C 17% 3.5 mph N5.6 kmh N 3.5 mph5.6 kmh 30.16 in1021.3 mb - 0.00 in0.0 mm 0.00 in0.0 mm
02:45 PM 59.8°F15.4°C 16.2°F-8.8°C 18% 3.5 mph WSW5.6 kmh WSW 4.6 mph7.4 kmh 30.15 in1021.0 mb - 0.00 in0.0 mm 0.00 in0.0 mm
02:50 PM 60.1°F15.6°C 13.7°F-10.2°C 16% 6.9 mph NW11.1 kmh NW 8.1 mph13.0 kmh 30.15 in1021.0 mb - 0.00 in0.0 mm 0.00 in0.0 mm
02:55 PM 60.0°F15.6°C 15.0°F-9.4°C 17% 4.6 mph W7.4 kmh W 8.1 mph13.0 kmh 30.15 in1021.0 mb - 0.00 in0.0 mm 0.00 in0.0 mm
03:00 PM 59.9°F15.5°C 14.9°F-9.5°C 17% 3.5 mph SW5.6 kmh SW 4.6 mph7.4 kmh 30.14 in1020.7 mb - 0.00 in0.0 mm 0.00 in0.0 mm
03:05 PM 60.3°F15.7°C 16.6°F-8.6°C 18% 2.3 mph N3.7 kmh N 3.5 mph5.6 kmh 30.14 in1020.7 mb - 0.00 in0.0 mm 0.00 in0.0 mm
03:10 PM 60.7°F15.9°C 15.6°F-9.1°C 17% 4.6 mph WSW7.4 kmh WSW 6.9 mph11.1 kmh 30.14 in1020.7 mb - 0.00 in0.0 mm 0.00 in0.0 mm
03:15 PM 60.7°F15.9°C 15.6°F-9.1°C 17% 4.6 mph W7.4 kmh W 8.1 mph13.0 kmh 30.14 in1020.7 mb - 0.00 in0.0 mm 0.00 in0.0 mm
03:20 PM 60.3°F15.7°C 13.8°F-10.1°C 16% 6.9 mph W11.1 kmh W 9.2 mph14.8 kmh 30.14 in1020.7 mb - 0.00 in0.0 mm 0.00 in0.0 mm
03:25 PM 60.0°F15.6°C 13.6°F-10.2°C 16% 2.3 mph SW3.7 kmh SW 2.3 mph3.7 kmh 30.14 in1020.7 mb - 0.00 in0.0 mm 0.00 in0.0 mm
03:30 PM 60.3°F15.7°C 15.2°F-9.3°C 17% 2.3 mph WSW3.7 kmh WSW 3.5 mph5.6 kmh 30.14 in1020.7 mb - 0.00 in0.0 mm 0.00 in0.0 mm
03:35 PM 60.4°F15.8°C 15.3°F-9.3°C 17% 4.6 mph NW7.4 kmh NW 6.9 mph11.1 kmh 30.13 in1020.3 mb - 0.00 in0.0 mm 0.00 in0.0 mm
03:40 PM 60.1°F15.6°C 13.7°F-10.2°C 16% 3.5 mph W5.6 kmh W 3.5 mph5.6 kmh 30.13 in1020.3 mb - 0.00 in0.0 mm 0.00 in0.0 mm
03:45 PM 59.8°F15.4°C 14.8°F-9.6°C 17% 4.6 mph N7.4 kmh N 6.9 mph11.1 kmh 30.13 in1020.3 mb - 0.00 in0.0 mm 0.00 in0.0 mm
03:50 PM 59.6°F15.3°C 16.0°F-8.9°C 18% 4.6 mph NNW7.4 kmh NNW 5.8 mph9.3 kmh 30.13 in1020.3 mb - 0.00 in0.0 mm 0.00 in0.0 mm
03:55 PM 59.5°F15.3°C 14.6°F-9.7°C 17% 4.6 mph NW7.4 kmh NW 6.9 mph11.1 kmh 30.12 in1020.0 mb - 0.00 in0.0 mm 0.00 in0.0 mm
04:00 PM 59.5°F15.3°C 14.6°F-9.7°C 17% 4.6 mph NW7.4 kmh NW 6.9 mph11.1 kmh 30.12 in1020.0 mb - 0.00 in0.0 mm 0.00 in0.0 mm
04:05 PM 59.6°F15.3°C 14.7°F-9.6°C 17% 5.8 mph NW9.3 kmh NW 8.1 mph13.0 kmh 30.12 in1020.0 mb - 0.00 in0.0 mm 0.00 in0.0 mm
04:10 PM 59.6°F15.3°C 14.7°F-9.6°C 17% Calm Calm 1.2 mph1.9 kmh 30.12 in1020.0 mb - 0.00 in0.0 mm 0.00 in0.0 mm
04:15 PM 59.6°F15.3°C 13.3°F-10.4°C 16% 3.5 mph WSW5.6 kmh WSW 3.5 mph5.6 kmh 30.11 in1019.6 mb - 0.00 in0.0 mm 0.00 in0.0 mm
04:20 PM 59.4°F15.2°C 13.1°F-10.5°C 16% 4.6 mph WNW7.4 kmh WNW 4.6 mph7.4 kmh 30.11 in1019.6 mb - 0.00 in0.0 mm 0.00 in0.0 mm
04:25 PM 59.0°F15.0°C 12.8°F-10.7°C 16% 2.3 mph WNW3.7 kmh WNW 4.6 mph7.4 kmh 30.11 in1019.6 mb - 0.00 in0.0 mm 0.00 in0.0 mm
04:30 PM 58.6°F14.8°C 13.9°F-10.1°C 17% 3.5 mph NW5.6 kmh NW 5.8 mph9.3 kmh 30.11 in1019.6 mb - 0.00 in0.0 mm 0.00 in0.0 mm
04:35 PM 58.4°F14.7°C 13.7°F-10.2°C 17% 3.5 mph NNW5.6 kmh NNW 6.9 mph11.1 kmh 30.11 in1019.6 mb - 0.00 in0.0 mm 0.00 in0.0 mm
04:40 PM 58.3°F14.6°C 14.9°F-9.5°C 18% 3.5 mph W5.6 kmh W 6.9 mph11.1 kmh 30.11 in1019.6 mb - 0.00 in0.0 mm 0.00 in0.0 mm
04:45 PM 58.3°F14.6°C 13.6°F-10.2°C 17% 3.5 mph W5.6 kmh W 3.5 mph5.6 kmh 30.11 in1019.6 mb - 0.00 in0.0 mm 0.00 in0.0 mm
04:50 PM 58.4°F14.7°C 15.0°F-9.4°C 18% 4.6 mph NW7.4 kmh NW 5.8 mph9.3 kmh 30.10 in1019.3 mb - 0.00 in0.0 mm 0.00 in0.0 mm
04:55 PM 58.5°F14.7°C 13.8°F-10.1°C 17% 4.6 mph NW7.4 kmh NW 4.6 mph7.4 kmh 30.10 in1019.3 mb - 0.00 in0.0 mm 0.00 in0.0 mm
05:00 PM 58.6°F14.8°C 15.2°F-9.3°C 18% 4.6 mph WSW7.4 kmh WSW 6.9 mph11.1 kmh 30.10 in1019.3 mb - 0.00 in0.0 mm 0.00 in0.0 mm
05:05 PM 58.6°F14.8°C 15.2°F-9.3°C 18% 3.5 mph W5.6 kmh W 3.5 mph5.6 kmh 30.10 in1019.3 mb - 0.00 in0.0 mm 0.00 in0.0 mm
05:10 PM 58.7°F14.8°C 15.2°F-9.3°C 18% 3.5 mph WSW5.6 kmh WSW 5.8 mph9.3 kmh 30.10 in1019.3 mb - 0.00 in0.0 mm 0.00 in0.0 mm
05:15 PM 58.8°F14.9°C 15.3°F-9.3°C 18% 3.5 mph W5.6 kmh W 4.6 mph7.4 kmh 30.09 in1019.0 mb - 0.00 in0.0 mm 0.00 in0.0 mm
05:20 PM 58.8°F14.9°C 15.3°F-9.3°C 18% 2.3 mph NW3.7 kmh NW 4.6 mph7.4 kmh 30.10 in1019.3 mb - 0.00 in0.0 mm 0.00 in0.0 mm
05:25 PM 58.6°F14.8°C 15.2°F-9.3°C 18% 3.5 mph NW5.6 kmh NW 4.6 mph7.4 kmh 30.10 in1019.3 mb - 0.00 in0.0 mm 0.00 in0.0 mm
05:30 PM 58.4°F14.7°C 15.0°F-9.4°C 18% 2.3 mph NW3.7 kmh NW 3.5 mph5.6 kmh 30.10 in1019.3 mb - 0.00 in0.0 mm 0.00 in0.0 mm
05:35 PM 58.2°F14.6°C 14.8°F-9.6°C 18% 4.6 mph NW7.4 kmh NW 3.5 mph5.6 kmh 30.09 in1019.0 mb - 0.00 in0.0 mm 0.00 in0.0 mm
05:40 PM 58.0°F14.4°C 13.4°F-10.3°C 17% 3.5 mph NW5.6 kmh NW 4.6 mph7.4 kmh 30.09 in1019.0 mb - 0.00 in0.0 mm 0.00 in0.0 mm
05:45 PM 57.9°F14.4°C 14.6°F-9.7°C 18% 2.3 mph NW3.7 kmh NW 3.5 mph5.6 kmh 30.09 in1019.0 mb - 0.00 in0.0 mm 0.00 in0.0 mm
05:50 PM 57.8°F14.3°C 14.5°F-9.7°C 18% 2.3 mph NW3.7 kmh NW 3.5 mph5.6 kmh 30.09 in1019.0 mb - 0.00 in0.0 mm 0.00 in0.0 mm
05:55 PM 57.7°F14.3°C 14.4°F-9.8°C 18% 2.3 mph NW3.7 kmh NW 3.5 mph5.6 kmh 30.09 in1019.0 mb - 0.00 in0.0 mm 0.00 in0.0 mm
06:00 PM 57.6°F14.2°C 14.3°F-9.8°C 18% 1.2 mph NW1.9 kmh NW 2.3 mph3.7 kmh 30.09 in1019.0 mb - 0.00 in0.0 mm 0.00 in0.0 mm
06:05 PM 57.5°F14.2°C 14.2°F-9.9°C 18% 2.3 mph NW3.7 kmh NW 3.5 mph5.6 kmh 30.09 in1019.0 mb - 0.00 in0.0 mm 0.00 in0.0 mm
06:10 PM 57.3°F14.1°C 15.3°F-9.3°C 19% 1.2 mph NW1.9 kmh NW 2.3 mph3.7 kmh 30.09 in1019.0 mb - 0.00 in0.0 mm 0.00 in0.0 mm
06:15 PM 57.2°F14.0°C 15.2°F-9.3°C 19% 2.3 mph NW3.7 kmh NW 3.5 mph5.6 kmh 30.09 in1019.0 mb - 0.00 in0.0 mm 0.00 in0.0 mm
06:20 PM 57.0°F13.9°C 15.1°F-9.4°C 19% 1.2 mph NW1.9 kmh NW 1.2 mph1.9 kmh 30.09 in1019.0 mb - 0.00 in0.0 mm 0.00 in0.0 mm
06:25 PM 56.8°F13.8°C 16.1°F-8.8°C 20% 2.3 mph NW3.7 kmh NW 3.5 mph5.6 kmh 30.09 in1019.0 mb - 0.00 in0.0 mm 0.00 in0.0 mm
06:30 PM 56.5°F13.6°C 15.8°F-9.0°C 20% 1.2 mph NW1.9 kmh NW 1.2 mph1.9 kmh 30.09 in1019.0 mb - 0.00 in0.0 mm 0.00 in0.0 mm
06:35 PM 56.3°F13.5°C 16.8°F-8.4°C 21% 1.2 mph NW1.9 kmh NW 2.3 mph3.7 kmh 30.09 in1019.0 mb - 0.00 in0.0 mm 0.00 in0.0 mm
06:40 PM 56.1°F13.4°C 17.7°F-7.9°C 22% 1.2 mph NW1.9 kmh NW 2.3 mph3.7 kmh 30.09 in1019.0 mb - 0.00 in0.0 mm 0.00 in0.0 mm
06:45 PM 55.9°F13.3°C 17.6°F-8.0°C 22% 1.2 mph NW1.9 kmh NW 1.2 mph1.9 kmh 30.09 in1019.0 mb - 0.00 in0.0 mm 0.00 in0.0 mm
06:50 PM 55.6°F13.1°C 18.4°F-7.6°C 23% 1.2 mph NW1.9 kmh NW 2.3 mph3.7 kmh 30.09 in1019.0 mb - 0.00 in0.0 mm 0.00 in0.0 mm
06:55 PM 55.4°F13.0°C 18.1°F-7.7°C 23% 1.2 mph NW1.9 kmh NW 2.3 mph3.7 kmh 30.09 in1019.0 mb - 0.00 in0.0 mm 0.00 in0.0 mm
07:00 PM 55.1°F12.8°C 17.9°F-7.8°C 23% 1.2 mph NW1.9 kmh NW 2.3 mph3.7 kmh 30.09 in1019.0 mb - 0.00 in0.0 mm 0.00 in0.0 mm
07:05 PM 55.0°F12.8°C 17.8°F-7.9°C 23% 2.3 mph NW3.7 kmh NW 2.3 mph3.7 kmh 30.09 in1019.0 mb - 0.00 in0.0 mm 0.00 in0.0 mm
07:10 PM 54.7°F12.6°C 18.6°F-7.4°C 24% 2.3 mph WNW3.7 kmh WNW 3.5 mph5.6 kmh 30.10 in1019.3 mb - 0.00 in0.0 mm 0.00 in0.0 mm
07:15 PM 54.5°F12.5°C 18.4°F-7.6°C 24% 2.3 mph W3.7 kmh W 2.3 mph3.7 kmh 30.10 in1019.3 mb - 0.00 in0.0 mm 0.00 in0.0 mm
07:20 PM 54.3°F12.4°C 18.2°F-7.7°C 24% 2.3 mph W3.7 kmh W 3.5 mph5.6 kmh 30.09 in1019.0 mb - 0.00 in0.0 mm 0.00 in0.0 mm
07:25 PM 54.1°F12.3°C 18.1°F-7.7°C 24% 1.2 mph W1.9 kmh W 2.3 mph3.7 kmh 30.09 in1019.0 mb - 0.00 in0.0 mm 0.00 in0.0 mm
07:30 PM 53.9°F12.2°C 16.9°F-8.4°C 23% 1.2 mph W1.9 kmh W 2.3 mph3.7 kmh 30.09 in1019.0 mb - 0.00 in0.0 mm 0.00 in0.0 mm
07:35 PM 53.8°F12.1°C 17.8°F-7.9°C 24% 1.2 mph W1.9 kmh W 1.2 mph1.9 kmh 30.09 in1019.0 mb - 0.00 in0.0 mm 0.00 in0.0 mm
07:40 PM 53.7°F12.1°C 16.7°F-8.5°C 23% 1.2 mph W1.9 kmh W 2.3 mph3.7 kmh 30.09 in1019.0 mb - 0.00 in0.0 mm 0.00 in0.0 mm
07:45 PM 53.5°F11.9°C 17.5°F-8.1°C 24% 1.2 mph W1.9 kmh W 2.3 mph3.7 kmh 30.09 in1019.0 mb - 0.00 in0.0 mm 0.00 in0.0 mm
07:50 PM 53.4°F11.9°C 17.5°F-8.1°C 24% 2.3 mph W3.7 kmh W 3.5 mph5.6 kmh 30.09 in1019.0 mb - 0.00 in0.0 mm 0.00 in0.0 mm
07:55 PM 53.3°F11.8°C 17.4°F-8.1°C 24% 2.3 mph W3.7 kmh W 3.5 mph5.6 kmh 30.09 in1019.0 mb - 0.00 in0.0 mm 0.00 in0.0 mm
08:00 PM 53.3°F11.8°C 18.3°F-7.6°C 25% 2.3 mph W3.7 kmh W 3.5 mph5.6 kmh 30.09 in1019.0 mb - 0.00 in0.0 mm 0.00 in0.0 mm
08:05 PM 53.2°F11.8°C 17.3°F-8.2°C 24% 2.3 mph W3.7 kmh W 3.5 mph5.6 kmh 30.10 in1019.3 mb - 0.00 in0.0 mm 0.00 in0.0 mm
08:10 PM 53.1°F11.7°C 17.2°F-8.2°C 24% 1.2 mph W1.9 kmh W 2.3 mph3.7 kmh 30.10 in1019.3 mb - 0.00 in0.0 mm 0.00 in0.0 mm
08:15 PM 53.1°F11.7°C 17.2°F-8.2°C 24% 2.3 mph W3.7 kmh W 3.5 mph5.6 kmh 30.10 in1019.3 mb - 0.00 in0.0 mm 0.00 in0.0 mm
08:20 PM 53.1°F11.7°C 17.2°F-8.2°C 24% 1.2 mph W1.9 kmh W 2.3 mph3.7 kmh 30.09 in1019.0 mb - 0.00 in0.0 mm 0.00 in0.0 mm
08:25 PM 53.0°F11.7°C 18.1°F-7.7°C 25% 1.2 mph W1.9 kmh W 2.3 mph3.7 kmh 30.10 in1019.3 mb - 0.00 in0.0 mm 0.00 in0.0 mm
08:30 PM 52.9°F11.6°C 18.0°F-7.8°C 25% 1.2 mph W1.9 kmh W 2.3 mph3.7 kmh 30.09 in1019.0 mb - 0.00 in0.0 mm 0.00 in0.0 mm
08:35 PM 52.7°F11.5°C 18.7°F-7.4°C 26% 1.2 mph W1.9 kmh W 2.3 mph3.7 kmh 30.09 in1019.0 mb - 0.00 in0.0 mm 0.00 in0.0 mm
08:40 PM 52.4°F11.3°C 19.3°F-7.1°C 27% 3.5 mph WSW5.6 kmh WSW 3.5 mph5.6 kmh 30.10 in1019.3 mb - 0.00 in0.0 mm 0.00 in0.0 mm
08:45 PM 52.0°F11.1°C 19.0°F-7.2°C 27% 4.6 mph W7.4 kmh W 4.6 mph7.4 kmh 30.10 in1019.3 mb - 0.00 in0.0 mm 0.00 in0.0 mm
08:50 PM 51.5°F10.8°C 19.5°F-6.9°C 28% 3.5 mph WSW5.6 kmh WSW 4.6 mph7.4 kmh 30.09 in1019.0 mb - 0.00 in0.0 mm 0.00 in0.0 mm
08:55 PM 51.2°F10.7°C 20.0°F-6.7°C 29% 3.5 mph WSW5.6 kmh WSW 4.6 mph7.4 kmh 30.10 in1019.3 mb - 0.00 in0.0 mm 0.00 in0.0 mm
09:00 PM 50.9°F10.5°C 20.5°F-6.4°C 30% 3.5 mph WSW5.6 kmh WSW 5.8 mph9.3 kmh 30.09 in1019.0 mb - 0.00 in0.0 mm 0.00 in0.0 mm
09:05 PM 50.6°F10.3°C 21.8°F-5.7°C 32% 3.5 mph W5.6 kmh W 5.8 mph9.3 kmh 30.10 in1019.3 mb - 0.00 in0.0 mm 0.00 in0.0 mm
09:10 PM 50.4°F10.2°C 21.6°F-5.8°C 32% 3.5 mph W5.6 kmh W 3.5 mph5.6 kmh 30.10 in1019.3 mb - 0.00 in0.0 mm 0.00 in0.0 mm
09:15 PM 50.2°F10.1°C 22.2°F-5.4°C 33% 3.5 mph W5.6 kmh W 3.5 mph5.6 kmh 30.09 in1019.0 mb - 0.00 in0.0 mm 0.00 in0.0 mm
09:20 PM 50.1°F10.1°C 22.8°F-5.1°C 34% 3.5 mph W5.6 kmh W 8.1 mph13.0 kmh 30.09 in1019.0 mb - 0.00 in0.0 mm 0.00 in0.0 mm
09:25 PM 50.2°F10.1°C 22.9°F-5.1°C 34% 3.5 mph W5.6 kmh W 3.5 mph5.6 kmh 30.09 in1019.0 mb - 0.00 in0.0 mm 0.00 in0.0 mm
09:30 PM 50.2°F10.1°C 22.9°F-5.1°C 34% 2.3 mph W3.7 kmh W 3.5 mph5.6 kmh 30.09 in1019.0 mb - 0.00 in0.0 mm 0.00 in0.0 mm
09:35 PM 50.2°F10.1°C 22.9°F-5.1°C 34% 3.5 mph W5.6 kmh W 3.5 mph5.6 kmh 30.08 in1018.6 mb - 0.00 in0.0 mm 0.00 in0.0 mm
09:40 PM 50.2°F10.1°C 22.9°F-5.1°C 34% 2.3 mph WNW3.7 kmh WNW 3.5 mph5.6 kmh 30.09 in1019.0 mb - 0.00 in0.0 mm 0.00 in0.0 mm
09:45 PM 50.3°F10.2°C 22.9°F-5.1°C 34% 1.2 mph W1.9 kmh W 3.5 mph5.6 kmh 30.08 in1018.6 mb - 0.00 in0.0 mm 0.00 in0.0 mm
09:50 PM 50.3°F10.2°C 23.0°F-5.0°C 34% 1.2 mph W1.9 kmh W 2.3 mph3.7 kmh 30.08 in1018.6 mb - 0.00 in0.0 mm 0.00 in0.0 mm
09:55 PM 50.2°F10.1°C 23.6°F-4.7°C 35% 2.3 mph NW3.7 kmh NW 3.5 mph5.6 kmh 30.08 in1018.6 mb - 0.00 in0.0 mm 0.00 in0.0 mm
10:00 PM 50.1°F10.1°C 23.5°F-4.7°C 35% 2.3 mph NW3.7 kmh NW 3.5 mph5.6 kmh 30.08 in1018.6 mb - 0.00 in0.0 mm 0.00 in0.0 mm
10:05 PM 49.9°F9.9°C 23.3°F-4.8°C 35% 2.3 mph NW3.7 kmh NW 2.3 mph3.7 kmh 30.08 in1018.6 mb - 0.00 in0.0 mm 0.00 in0.0 mm
10:10 PM 49.8°F9.9°C 23.2°F-4.9°C 35% 1.2 mph WNW1.9 kmh WNW 3.5 mph5.6 kmh 30.08 in1018.6 mb - 0.00 in0.0 mm 0.00 in0.0 mm
10:15 PM 49.7°F9.8°C 23.8°F-4.6°C 36% 2.3 mph W3.7 kmh W 3.5 mph5.6 kmh 30.08 in1018.6 mb - 0.00 in0.0 mm 0.00 in0.0 mm
10:20 PM 49.6°F9.8°C 23.7°F-4.6°C 36% 3.5 mph WNW5.6 kmh WNW 4.6 mph7.4 kmh 30.07 in1018.3 mb - 0.00 in0.0 mm 0.00 in0.0 mm
10:25 PM 49.5°F9.7°C 23.6°F-4.7°C 36% 2.3 mph WNW3.7 kmh WNW 3.5 mph5.6 kmh 30.07 in1018.3 mb - 0.00 in0.0 mm 0.00 in0.0 mm
10:30 PM 49.5°F9.7°C 23.6°F-4.7°C 36% 2.3 mph WNW3.7 kmh WNW 3.5 mph5.6 kmh 30.07 in1018.3 mb - 0.00 in0.0 mm 0.00 in0.0 mm
10:35 PM 49.4°F9.7°C 23.5°F-4.7°C 36% 2.3 mph W3.7 kmh W 3.5 mph5.6 kmh 30.07 in1018.3 mb - 0.00 in0.0 mm 0.00 in0.0 mm
10:40 PM 49.4°F9.7°C 23.5°F-4.7°C 36% 2.3 mph W3.7 kmh W 3.5 mph5.6 kmh 30.07 in1018.3 mb - 0.00 in0.0 mm 0.00 in0.0 mm
10:45 PM 49.4°F9.7°C 23.5°F-4.7°C 36% 2.3 mph WSW3.7 kmh WSW 3.5 mph5.6 kmh 30.07 in1018.3 mb - 0.00 in0.0 mm 0.00 in0.0 mm
10:50 PM 49.3°F9.6°C 23.4°F-4.8°C 36% 2.3 mph WSW3.7 kmh WSW 3.5 mph5.6 kmh 30.08 in1018.6 mb - 0.00 in0.0 mm 0.00 in0.0 mm
10:55 PM 49.1°F9.5°C 24.6°F-4.1°C 38% 1.2 mph WSW1.9 kmh WSW 2.3 mph3.7 kmh 30.07 in1018.3 mb - 0.00 in0.0 mm 0.00 in0.0 mm
11:00 PM 48.8°F9.3°C 24.3°F-4.3°C 38% 2.3 mph WSW3.7 kmh WSW 3.5 mph5.6 kmh 30.07 in1018.3 mb - 0.00 in0.0 mm 0.00 in0.0 mm
11:05 PM 48.6°F9.2°C 24.7°F-4.1°C 39% 1.2 mph WSW1.9 kmh WSW 2.3 mph3.7 kmh 30.07 in1018.3 mb - 0.00 in0.0 mm 0.00 in0.0 mm
11:10 PM 48.3°F9.1°C 24.5°F-4.2°C 39% 1.2 mph W1.9 kmh W 3.5 mph5.6 kmh 30.07 in1018.3 mb - 0.00 in0.0 mm 0.00 in0.0 mm
11:15 PM 48.1°F8.9°C 24.3°F-4.3°C 39% 1.2 mph W1.9 kmh W 2.3 mph3.7 kmh 30.07 in1018.3 mb - 0.00 in0.0 mm 0.00 in0.0 mm
11:20 PM 47.9°F8.8°C 24.1°F-4.4°C 39% 1.2 mph W1.9 kmh W 2.3 mph3.7 kmh 30.07 in1018.3 mb - 0.00 in0.0 mm 0.00 in0.0 mm
11:25 PM 47.8°F8.8°C 24.0°F-4.4°C 39% Calm Calm -- 30.07 in1018.3 mb - 0.00 in0.0 mm 0.00 in0.0 mm
11:30 PM 47.7°F8.7°C 24.6°F-4.1°C 40% Calm Calm -- 30.06 in1017.9 mb - 0.00 in0.0 mm 0.00 in0.0 mm
11:35 PM 47.6°F8.7°C 24.4°F-4.2°C 40% Calm Calm -- 30.06 in1017.9 mb - 0.00 in0.0 mm 0.00 in0.0 mm
11:40 PM 47.5°F8.6°C 24.3°F-4.3°C 40% Calm Calm -- 30.06 in1017.9 mb - 0.00 in0.0 mm 0.00 in0.0 mm
11:45 PM 47.4°F8.6°C 24.9°F-3.9°C 41% Calm Calm 1.2 mph1.9 kmh 30.06 in1017.9 mb - 0.00 in0.0 mm 0.00 in0.0 mm
11:50 PM 47.3°F8.5°C 25.3°F-3.7°C 42% Calm Calm -- 30.06 in1017.9 mb - 0.00 in0.0 mm 0.00 in0.0 mm
11:55 PM 47.0°F8.3°C 25.1°F-3.8°C 42% Calm Calm -- 30.05 in1017.6 mb - 0.00 in0.0 mm 0.00 in0.0 mm